createdAt,value
2022-08-20T00:00:28.810Z,0.00
2022-08-20T00:01:28.857Z,0.00
2022-08-20T00:02:28.791Z,0.00
2022-08-20T00:03:28.785Z,0.00
2022-08-20T00:04:28.791Z,0.00
2022-08-20T00:05:28.754Z,0.00
2022-08-20T00:06:28.764Z,0.00
2022-08-20T00:07:28.732Z,0.00
2022-08-20T00:08:28.721Z,0.00
2022-08-20T00:09:28.711Z,0.00
2022-08-20T00:10:28.695Z,0.00
2022-08-20T00:11:29.010Z,0.00
2022-08-20T00:12:28.692Z,0.00
2022-08-20T00:13:28.663Z,0.00
2022-08-20T00:14:28.652Z,0.00
2022-08-20T00:15:28.642Z,0.00
2022-08-20T00:16:28.654Z,0.00
2022-08-20T00:17:28.647Z,0.00
2022-08-20T00:18:28.603Z,0.00
2022-08-20T00:19:28.597Z,0.00
2022-08-20T00:20:28.590Z,0.00
2022-08-20T00:21:28.573Z,0.00
2022-08-20T00:22:28.554Z,0.00
2022-08-20T00:23:28.563Z,0.00
2022-08-20T00:24:28.533Z,0.00
2022-08-20T00:25:28.524Z,0.00
2022-08-20T00:26:28.508Z,0.00
2022-08-20T00:27:28.504Z,0.00
2022-08-20T00:28:28.505Z,0.00
2022-08-20T00:29:28.483Z,0.00
2022-08-20T00:30:28.463Z,0.00
2022-08-20T00:31:28.455Z,0.00
2022-08-20T00:32:28.448Z,0.00
2022-08-20T00:33:28.434Z,0.00
2022-08-20T00:34:28.433Z,0.00
2022-08-20T00:35:28.415Z,0.00
2022-08-20T00:36:32.541Z,0.00
2022-08-20T00:37:28.385Z,0.00
2022-08-20T00:38:28.366Z,0.00
2022-08-20T00:39:28.375Z,0.00
2022-08-20T00:40:28.344Z,0.00
2022-08-20T00:41:28.337Z,0.00
2022-08-20T00:42:28.316Z,0.00
2022-08-20T00:43:28.307Z,0.00
2022-08-20T00:44:28.294Z,0.00
2022-08-20T00:45:28.306Z,0.00
2022-08-20T00:46:31.878Z,0.00
2022-08-20T00:47:28.267Z,0.00
2022-08-20T00:48:28.249Z,0.00
2022-08-20T00:49:28.247Z,0.00
2022-08-20T00:50:28.245Z,0.00
2022-08-20T00:51:29.913Z,0.00
2022-08-20T00:52:28.197Z,0.00
2022-08-20T00:53:28.196Z,0.00
2022-08-20T00:54:28.178Z,0.00
2022-08-20T00:55:31.514Z,0.00
2022-08-20T00:56:28.168Z,0.00
2022-08-20T00:57:28.140Z,0.00
2022-08-20T00:58:29.131Z,0.00
2022-08-20T00:59:28.118Z,0.00
2022-08-20T01:00:28.142Z,0.00
2022-08-20T01:01:28.206Z,0.00
2022-08-20T01:02:28.101Z,0.00
2022-08-20T01:03:28.078Z,0.00
2022-08-20T01:04:28.058Z,0.00
2022-08-20T01:05:29.574Z,0.00
2022-08-20T01:06:28.040Z,0.00
2022-08-20T01:07:28.053Z,0.00
2022-08-20T01:08:28.025Z,0.00
2022-08-20T01:09:49.446Z,0.00
2022-08-20T01:10:28.987Z,0.00
2022-08-20T01:11:27.984Z,0.00
2022-08-20T01:12:28.996Z,0.00
2022-08-20T01:13:27.958Z,0.00
2022-08-20T01:14:27.940Z,0.00
2022-08-20T01:15:31.099Z,0.00
2022-08-20T01:16:28.115Z,0.00
2022-08-20T01:17:27.911Z,0.00
2022-08-20T01:18:28.006Z,0.00
2022-08-20T01:19:29.173Z,0.00
2022-08-20T01:20:27.872Z,0.00
2022-08-20T01:21:27.873Z,0.00
2022-08-20T01:22:27.855Z,0.00
2022-08-20T01:23:27.864Z,0.00
2022-08-20T01:24:27.832Z,0.00
2022-08-20T01:25:27.822Z,0.00
2022-08-20T01:26:27.811Z,0.00
2022-08-20T01:27:27.802Z,0.00
2022-08-20T01:28:27.790Z,0.00
2022-08-20T01:29:27.792Z,0.00
2022-08-20T01:30:27.764Z,0.00
2022-08-20T01:31:27.752Z,0.00
2022-08-20T01:32:27.742Z,0.00
2022-08-20T01:33:27.734Z,0.00
2022-08-20T01:34:27.733Z,0.00
2022-08-20T01:35:27.711Z,0.00
2022-08-20T01:36:27.693Z,0.00
2022-08-20T01:37:31.457Z,0.00
2022-08-20T01:38:27.674Z,0.00
2022-08-20T01:39:27.662Z,0.00
2022-08-20T01:40:27.665Z,0.00
2022-08-20T01:41:28.879Z,0.00
2022-08-20T01:42:27.658Z,0.00
2022-08-20T01:43:27.614Z,0.00
2022-08-20T01:44:27.612Z,0.00
2022-08-20T01:45:27.804Z,0.00
2022-08-20T01:46:27.586Z,0.00
2022-08-20T01:47:27.566Z,0.00
2022-08-20T01:48:27.574Z,0.00
2022-08-20T01:49:27.546Z,0.00
2022-08-20T01:50:27.558Z,0.00
2022-08-20T01:51:27.525Z,0.00
2022-08-20T01:52:27.516Z,0.00
2022-08-20T01:53:27.498Z,0.00
2022-08-20T01:54:27.496Z,0.00
2022-08-20T01:55:27.486Z,0.00
2022-08-20T01:56:27.489Z,0.00
2022-08-20T01:57:27.464Z,0.00
2022-08-20T01:58:27.469Z,0.00
2022-08-20T01:59:27.463Z,0.00
2022-08-20T02:00:27.429Z,0.00
2022-08-20T02:01:27.540Z,0.00
2022-08-20T02:02:27.407Z,0.00
2022-08-20T02:03:27.389Z,0.00
2022-08-20T02:04:27.378Z,0.00
2022-08-20T02:05:29.899Z,0.00
2022-08-20T02:06:27.357Z,0.00
2022-08-20T02:07:27.359Z,0.00
2022-08-20T02:08:27.329Z,0.00
2022-08-20T02:09:27.341Z,0.00
2022-08-20T02:10:27.310Z,0.00
2022-08-20T02:11:27.302Z,0.00
2022-08-20T02:12:27.318Z,0.00
2022-08-20T02:13:27.277Z,0.00
2022-08-20T02:14:27.270Z,0.00
2022-08-20T02:15:34.774Z,0.00
2022-08-20T02:16:28.241Z,0.00
2022-08-20T02:17:27.231Z,0.00
2022-08-20T02:18:27.246Z,0.00
2022-08-20T02:19:27.213Z,0.00
2022-08-20T02:20:27.201Z,0.00
2022-08-20T02:21:27.182Z,0.00
2022-08-20T02:22:27.171Z,0.00
2022-08-20T02:23:27.179Z,0.00
2022-08-20T02:24:27.150Z,0.00
2022-08-20T02:25:27.141Z,0.00
2022-08-20T02:26:27.142Z,0.00
2022-08-20T02:27:27.110Z,0.00
2022-08-20T02:28:27.101Z,0.00
2022-08-20T02:29:27.101Z,0.00
2022-08-20T02:30:27.888Z,0.00
2022-08-20T02:31:27.898Z,0.00
2022-08-20T02:32:33.621Z,0.00
2022-08-20T02:33:28.042Z,0.00
2022-08-20T02:34:27.052Z,0.00
2022-08-20T02:35:27.029Z,0.00
2022-08-20T02:36:27.011Z,0.00
2022-08-20T02:37:26.993Z,0.00
2022-08-20T02:38:26.982Z,0.00
2022-08-20T02:39:26.978Z,0.00
2022-08-20T02:40:30.464Z,0.00
2022-08-20T02:41:26.943Z,0.00
2022-08-20T02:42:26.933Z,0.00
2022-08-20T02:43:26.924Z,0.00
2022-08-20T02:44:26.913Z,0.00
2022-08-20T02:45:26.924Z,0.00
2022-08-20T02:46:26.894Z,0.00
2022-08-20T02:47:26.874Z,0.00
2022-08-20T02:48:26.864Z,0.00
2022-08-20T02:49:26.853Z,0.00
2022-08-20T02:50:26.843Z,0.00
2022-08-20T02:51:30.419Z,0.00
2022-08-20T02:52:26.822Z,0.00
2022-08-20T02:53:26.805Z,0.00
2022-08-20T02:54:26.796Z,0.00
2022-08-20T02:55:27.380Z,0.00
2022-08-20T02:56:26.796Z,0.00
2022-08-20T02:57:26.768Z,0.00
2022-08-20T02:58:26.756Z,0.00
2022-08-20T02:59:26.735Z,0.00
2022-08-20T03:00:26.751Z,0.00
2022-08-20T03:01:26.765Z,0.00
2022-08-20T03:02:26.724Z,0.00
2022-08-20T03:03:26.707Z,0.00
2022-08-20T03:04:26.687Z,0.00
2022-08-20T03:05:26.667Z,0.00
2022-08-20T03:06:26.656Z,0.00
2022-08-20T03:07:26.667Z,0.00
2022-08-20T03:08:26.638Z,0.00
2022-08-20T03:09:26.626Z,0.00
2022-08-20T03:10:26.617Z,0.00
2022-08-20T03:11:26.597Z,0.00
2022-08-20T03:12:26.587Z,0.00
2022-08-20T03:13:26.599Z,0.00
2022-08-20T03:14:26.567Z,0.00
2022-08-20T03:15:26.548Z,0.00
2022-08-20T03:16:26.548Z,0.00
2022-08-20T03:17:26.552Z,0.00
2022-08-20T03:18:26.519Z,0.00
2022-08-20T03:19:26.528Z,0.00
2022-08-20T03:20:26.504Z,0.00
2022-08-20T03:21:26.489Z,0.00
2022-08-20T03:22:26.477Z,0.00
2022-08-20T03:23:26.459Z,0.00
2022-08-20T03:24:26.451Z,0.00
2022-08-20T03:25:26.460Z,0.00
2022-08-20T03:26:26.431Z,0.00
2022-08-20T03:27:26.845Z,0.00
2022-08-20T03:28:27.400Z,0.00
2022-08-20T03:29:26.390Z,0.00
2022-08-20T03:30:26.380Z,0.00
2022-08-20T03:31:26.380Z,0.00
2022-08-20T03:32:26.360Z,0.00
2022-08-20T03:33:26.349Z,0.00
2022-08-20T03:34:26.341Z,0.00
2022-08-20T03:35:26.336Z,0.00
2022-08-20T03:36:27.829Z,0.00
2022-08-20T03:37:26.299Z,0.00
2022-08-20T03:38:32.622Z,0.00
2022-08-20T03:39:27.272Z,0.00
2022-08-20T03:40:26.263Z,0.00
2022-08-20T03:41:26.252Z,0.00
2022-08-20T03:42:26.260Z,0.00
2022-08-20T03:43:26.223Z,0.00
2022-08-20T03:44:26.221Z,0.00
2022-08-20T03:45:26.204Z,0.00
2022-08-20T03:46:26.204Z,0.00
2022-08-20T03:47:26.202Z,0.00
2022-08-20T03:48:26.173Z,0.00
2022-08-20T03:49:26.163Z,0.00
2022-08-20T03:50:26.152Z,0.00
2022-08-20T03:51:26.133Z,0.00
2022-08-20T03:52:26.153Z,0.00
2022-08-20T03:53:26.115Z,0.00
2022-08-20T03:54:29.110Z,4.00
2022-08-20T03:55:27.094Z,4.00
2022-08-20T03:56:26.086Z,4.00
2022-08-20T03:57:26.064Z,4.00
2022-08-20T03:58:34.735Z,4.00
2022-08-20T03:59:27.047Z,8.00
2022-08-20T04:00:26.044Z,4.00
2022-08-20T04:01:45.285Z,8.00
2022-08-20T04:02:27.015Z,8.00
2022-08-20T04:03:26.046Z,8.00
2022-08-20T04:04:25.995Z,8.00
2022-08-20T04:05:28.291Z,12.00
2022-08-20T04:06:25.975Z,12.00
2022-08-20T04:07:26.057Z,16.00
2022-08-20T04:08:25.954Z,16.00
2022-08-20T04:09:25.955Z,16.00
2022-08-20T04:10:25.926Z,20.00
2022-08-20T04:11:25.906Z,24.00
2022-08-20T04:12:25.916Z,28.00
2022-08-20T04:13:25.890Z,32.00
2022-08-20T04:14:25.877Z,36.00
2022-08-20T04:15:25.897Z,40.00
2022-08-20T04:16:25.856Z,48.00
2022-08-20T04:17:25.840Z,56.00
2022-08-20T04:18:25.838Z,68.00
2022-08-20T04:19:25.817Z,84.00
2022-08-20T04:20:25.814Z,100.00
2022-08-20T04:21:25.816Z,116.00
2022-08-20T04:22:26.787Z,132.00
2022-08-20T04:23:25.768Z,148.00
2022-08-20T04:24:32.548Z,164.00
2022-08-20T04:25:26.750Z,184.00
2022-08-20T04:26:25.739Z,204.00
2022-08-20T04:27:25.747Z,232.00
2022-08-20T04:28:32.762Z,264.00
2022-08-20T04:29:25.700Z,292.00
2022-08-20T04:30:26.694Z,328.00
2022-08-20T04:31:25.737Z,360.00
2022-08-20T04:32:25.674Z,396.00
2022-08-20T04:33:34.148Z,428.00
2022-08-20T04:34:26.642Z,460.00
2022-08-20T04:35:25.623Z,492.00
2022-08-20T04:36:25.622Z,528.00
2022-08-20T04:37:25.603Z,568.00
2022-08-20T04:38:25.614Z,608.00
2022-08-20T04:39:26.581Z,640.00
2022-08-20T04:40:25.572Z,668.00
2022-08-20T04:41:25.555Z,680.00
2022-08-20T04:42:25.552Z,688.00
2022-08-20T04:43:25.569Z,704.00
2022-08-20T04:44:25.553Z,732.00
2022-08-20T04:45:25.512Z,760.00
2022-08-20T04:46:25.827Z,796.00
2022-08-20T04:47:34.816Z,856.00
2022-08-20T04:48:26.474Z,912.00
2022-08-20T04:49:25.485Z,956.00
2022-08-20T04:50:25.455Z,996.00
2022-08-20T04:51:25.443Z,1068.00
2022-08-20T04:52:25.425Z,1172.00
2022-08-20T04:53:26.052Z,1292.00
2022-08-20T04:54:25.406Z,1388.00
2022-08-20T04:55:25.415Z,1416.00
2022-08-20T04:56:25.384Z,1388.00
2022-08-20T04:57:25.366Z,1336.00
2022-08-20T04:58:25.364Z,1292.00
2022-08-20T04:59:25.345Z,1252.00
2022-08-20T05:00:25.356Z,1212.00
2022-08-20T05:01:25.347Z,1192.00
2022-08-20T05:02:25.306Z,1188.00
2022-08-20T05:03:25.297Z,1176.00
2022-08-20T05:04:25.287Z,1164.00
2022-08-20T05:05:25.276Z,1156.00
2022-08-20T05:06:25.308Z,1152.00
2022-08-20T05:07:25.252Z,1156.00
2022-08-20T05:08:25.237Z,1172.00
2022-08-20T05:09:25.227Z,1204.00
2022-08-20T05:10:25.218Z,1248.00
2022-08-20T05:11:35.614Z,1296.00
2022-08-20T05:12:26.209Z,1344.00
2022-08-20T05:13:27.380Z,1392.00
2022-08-20T05:14:25.186Z,1436.00
2022-08-20T05:15:25.158Z,1484.00
2022-08-20T05:16:25.139Z,1528.00
2022-08-20T05:17:25.158Z,1572.00
2022-08-20T05:18:25.122Z,1628.00
2022-08-20T05:19:25.108Z,1684.00
2022-08-20T05:20:25.099Z,1716.00
2022-08-20T05:21:25.098Z,1728.00
2022-08-20T05:22:25.069Z,1740.00
2022-08-20T05:23:26.081Z,1752.00
2022-08-20T05:24:25.051Z,1756.00
2022-08-20T05:25:25.039Z,1772.00
2022-08-20T05:26:25.030Z,1796.00
2022-08-20T05:27:25.150Z,1820.00
2022-08-20T05:28:24.999Z,1840.00
2022-08-20T05:29:25.010Z,1876.00
2022-08-20T05:30:24.982Z,1920.00
2022-08-20T05:31:31.796Z,2056.00
2022-08-20T05:32:25.960Z,2292.00
2022-08-20T05:33:24.941Z,2612.00
2022-08-20T05:34:24.931Z,3016.00
2022-08-20T05:35:24.932Z,3460.00
2022-08-20T05:36:24.910Z,3948.00
2022-08-20T05:37:24.891Z,4352.00
2022-08-20T05:38:24.881Z,4568.00
2022-08-20T05:39:24.892Z,4748.00
2022-08-20T05:40:24.932Z,4992.00
2022-08-20T05:41:29.342Z,5208.00
2022-08-20T05:42:25.842Z,5468.00
2022-08-20T05:43:24.822Z,5632.00
2022-08-20T05:44:24.822Z,5684.00
2022-08-20T05:45:24.802Z,5884.00
2022-08-20T05:46:24.793Z,6304.00
2022-08-20T05:47:24.793Z,6524.00
2022-08-20T05:48:24.771Z,6528.00
2022-08-20T05:49:24.753Z,6448.00
2022-08-20T05:50:24.743Z,6260.00
2022-08-20T05:51:24.734Z,6036.00
2022-08-20T05:52:24.724Z,5744.00
2022-08-20T05:53:24.724Z,5432.00
2022-08-20T05:54:24.695Z,5096.00
2022-08-20T05:55:24.693Z,4832.00
2022-08-20T05:56:27.015Z,4548.00
2022-08-20T05:57:24.674Z,4212.00
2022-08-20T05:58:24.674Z,3840.00
2022-08-20T05:59:24.644Z,3464.00
2022-08-20T06:00:24.625Z,3236.00
2022-08-20T06:01:24.686Z,3184.00
2022-08-20T06:02:24.606Z,3216.00
2022-08-20T06:03:24.597Z,3224.00
2022-08-20T06:04:24.605Z,3212.00
2022-08-20T06:05:24.576Z,3180.00
2022-08-20T06:06:44.639Z,3188.00
2022-08-20T06:07:25.555Z,3212.00
2022-08-20T06:08:24.536Z,3296.00
2022-08-20T06:09:32.004Z,3436.00
2022-08-20T06:10:25.541Z,3484.00
2022-08-20T06:11:24.507Z,3444.00
2022-08-20T06:12:24.494Z,3428.00
2022-08-20T06:13:24.488Z,3496.00
2022-08-20T06:14:24.469Z,3672.00
2022-08-20T06:15:24.486Z,3844.00
2022-08-20T06:16:24.447Z,3880.00
2022-08-20T06:17:24.437Z,3860.00
2022-08-20T06:18:28.358Z,3968.00
2022-08-20T06:19:26.117Z,4252.00
2022-08-20T06:20:24.407Z,4448.00
2022-08-20T06:21:24.429Z,4536.00
2022-08-20T06:22:24.967Z,4500.00
2022-08-20T06:23:24.377Z,4356.00
2022-08-20T06:24:24.371Z,4176.00
2022-08-20T06:25:24.349Z,4188.00
2022-08-20T06:26:29.773Z,4408.00
2022-08-20T06:27:25.327Z,4712.00
2022-08-20T06:28:24.314Z,5008.00
2022-08-20T06:29:24.310Z,4940.00
2022-08-20T06:30:24.289Z,4744.00
2022-08-20T06:31:24.281Z,4608.00
2022-08-20T06:32:28.743Z,4700.00
2022-08-20T06:33:25.260Z,5112.00
2022-08-20T06:34:24.240Z,5776.00
2022-08-20T06:35:24.239Z,6216.00
2022-08-20T06:36:24.221Z,6416.00
2022-08-20T06:37:24.636Z,6792.00
2022-08-20T06:38:24.221Z,7280.00
2022-08-20T06:39:24.191Z,7732.00
2022-08-20T06:40:24.180Z,7848.00
2022-08-20T06:41:36.286Z,7736.00
2022-08-20T06:42:25.153Z,7780.00
2022-08-20T06:43:24.151Z,7704.00
2022-08-20T06:44:24.161Z,7752.00
2022-08-20T06:45:24.121Z,8072.00
2022-08-20T06:46:24.111Z,8632.00
2022-08-20T06:47:24.101Z,9240.00
2022-08-20T06:48:24.090Z,9888.00
2022-08-20T06:49:24.112Z,10576.00
2022-08-20T06:50:24.073Z,11280.00
2022-08-20T06:51:24.053Z,11724.00
2022-08-20T06:52:27.075Z,11428.00
2022-08-20T06:53:25.034Z,10436.00
2022-08-20T06:54:28.587Z,9956.00
2022-08-20T06:55:25.064Z,9448.00
2022-08-20T06:56:24.013Z,9100.00
2022-08-20T06:57:23.992Z,9192.00
2022-08-20T06:58:36.774Z,9812.00
2022-08-20T06:59:24.965Z,10720.00
2022-08-20T07:00:23.953Z,11624.00
2022-08-20T07:01:23.983Z,11812.00
2022-08-20T07:02:30.172Z,10892.00
2022-08-20T07:03:24.924Z,10180.00
2022-08-20T07:04:23.905Z,9928.00
2022-08-20T07:05:23.895Z,9564.00
2022-08-20T07:06:23.885Z,9548.00
2022-08-20T07:07:23.890Z,9656.00
2022-08-20T07:08:23.856Z,9708.00
2022-08-20T07:09:23.847Z,9912.00
2022-08-20T07:10:23.844Z,10496.00
2022-08-20T07:11:28.181Z,10856.00
2022-08-20T07:12:24.857Z,10708.00
2022-08-20T07:13:23.806Z,10276.00
2022-08-20T07:14:23.787Z,10080.00
2022-08-20T07:15:23.786Z,10132.00
2022-08-20T07:16:23.770Z,10260.00
2022-08-20T07:17:24.282Z,10592.00
2022-08-20T07:18:27.960Z,11120.00
2022-08-20T07:19:23.738Z,11508.00
2022-08-20T07:20:23.729Z,11900.00
2022-08-20T07:21:23.719Z,12292.00
2022-08-20T07:22:23.699Z,12376.00
2022-08-20T07:23:23.717Z,12352.00
2022-08-20T07:24:23.678Z,12460.00
2022-08-20T07:25:24.671Z,12380.00
2022-08-20T07:26:23.657Z,12040.00
2022-08-20T07:27:23.648Z,12068.00
2022-08-20T07:28:23.637Z,12448.00
2022-08-20T07:29:23.649Z,12884.00
2022-08-20T07:30:23.691Z,13452.00
2022-08-20T07:31:23.610Z,13484.00
2022-08-20T07:32:23.590Z,13312.00
2022-08-20T07:33:24.652Z,13296.00
2022-08-20T07:34:23.591Z,13704.00
2022-08-20T07:35:23.561Z,13668.00
2022-08-20T07:36:23.551Z,13064.00
2022-08-20T07:37:23.542Z,12972.00
2022-08-20T07:38:23.522Z,13020.00
2022-08-20T07:39:23.521Z,13228.00
2022-08-20T07:40:26.084Z,13048.00
2022-08-20T07:41:23.493Z,13168.00
2022-08-20T07:42:23.481Z,13412.00
2022-08-20T07:43:23.472Z,13400.00
2022-08-20T07:44:30.773Z,13824.00
2022-08-20T07:45:24.472Z,14164.00
2022-08-20T07:46:23.433Z,13936.00
2022-08-20T07:47:24.433Z,13924.00
2022-08-20T07:48:30.867Z,14492.00
2022-08-20T07:49:24.413Z,15316.00
2022-08-20T07:50:23.397Z,16832.00
2022-08-20T07:51:23.406Z,18848.00
2022-08-20T07:52:23.364Z,35680.00
2022-08-20T07:53:23.363Z,28928.00
2022-08-20T07:54:23.345Z,19424.00
2022-08-20T07:55:23.343Z,20032.00
2022-08-20T07:56:24.470Z,19712.00
2022-08-20T07:57:23.334Z,18912.00
2022-08-20T07:58:23.314Z,18464.00
2022-08-20T07:59:24.295Z,16788.00
2022-08-20T08:00:23.294Z,14916.00
2022-08-20T08:01:23.309Z,13548.00
2022-08-20T08:02:23.277Z,13036.00
2022-08-20T08:03:23.247Z,13136.00
2022-08-20T08:04:24.235Z,13344.00
2022-08-20T08:05:23.227Z,13468.00
2022-08-20T08:06:29.214Z,13800.00
2022-08-20T08:07:24.249Z,14660.00
2022-08-20T08:08:23.192Z,15408.00
2022-08-20T08:09:23.186Z,15768.00
2022-08-20T08:10:23.216Z,15644.00
2022-08-20T08:11:23.158Z,15280.00
2022-08-20T08:12:23.146Z,14840.00
2022-08-20T08:13:23.186Z,14476.00
2022-08-20T08:14:23.119Z,14280.00
2022-08-20T08:15:23.109Z,14212.00
2022-08-20T08:16:23.098Z,13988.00
2022-08-20T08:17:23.089Z,13668.00
2022-08-20T08:18:23.070Z,13524.00
2022-08-20T08:19:23.090Z,13632.00
2022-08-20T08:20:23.050Z,13868.00
2022-08-20T08:21:23.040Z,14052.00
2022-08-20T08:22:23.032Z,14424.00
2022-08-20T08:23:24.749Z,14796.00
2022-08-20T08:24:27.794Z,15476.00
2022-08-20T08:25:23.000Z,16992.00
2022-08-20T08:26:22.982Z,23264.00
2022-08-20T08:27:22.982Z,19104.00
2022-08-20T08:28:22.962Z,17632.00
2022-08-20T08:29:22.954Z,17408.00
2022-08-20T08:30:22.953Z,17920.00
2022-08-20T08:31:22.932Z,17600.00
2022-08-20T08:32:22.914Z,15184.00
2022-08-20T08:33:22.913Z,14168.00
2022-08-20T08:34:22.893Z,13152.00
2022-08-20T08:35:22.913Z,12388.00
2022-08-20T08:36:22.875Z,12188.00
2022-08-20T08:37:22.864Z,12196.00
2022-08-20T08:38:22.863Z,11984.00
2022-08-20T08:39:22.843Z,11652.00
2022-08-20T08:40:22.855Z,11100.00
2022-08-20T08:41:22.844Z,10696.00
2022-08-20T08:42:22.805Z,10812.00
2022-08-20T08:43:22.795Z,11540.00
2022-08-20T08:44:22.785Z,12964.00
2022-08-20T08:45:22.776Z,14312.00
2022-08-20T08:46:22.766Z,15508.00
2022-08-20T08:47:22.778Z,17344.00
2022-08-20T08:48:22.745Z,17600.00
2022-08-20T08:49:22.735Z,18112.00
2022-08-20T08:50:43.847Z,18624.00
2022-08-20T08:51:23.715Z,22784.00
2022-08-20T08:52:22.977Z,43264.00
2022-08-20T08:53:22.707Z,31360.00
2022-08-20T08:54:22.677Z,17888.00
2022-08-20T08:55:22.668Z,14384.00
2022-08-20T08:56:22.649Z,12224.00
2022-08-20T08:57:22.647Z,10920.00
2022-08-20T08:58:22.632Z,10356.00
2022-08-20T08:59:22.639Z,10136.00
2022-08-20T09:00:22.607Z,10088.00
2022-08-20T09:01:56.620Z,10264.00
2022-08-20T09:02:23.648Z,9872.00
2022-08-20T09:03:22.580Z,9824.00
2022-08-20T09:04:22.560Z,10736.00
2022-08-20T09:05:22.575Z,11640.00
2022-08-20T09:06:22.541Z,12104.00
2022-08-20T09:07:22.531Z,11916.00
2022-08-20T09:08:22.521Z,11640.00
2022-08-20T09:09:22.511Z,11784.00
2022-08-20T09:10:23.074Z,12936.00
2022-08-20T09:11:22.497Z,14700.00
2022-08-20T09:12:22.472Z,16796.00
2022-08-20T09:13:22.474Z,18656.00
2022-08-20T09:14:22.452Z,18848.00
2022-08-20T09:15:22.443Z,19552.00
2022-08-20T09:16:22.490Z,19616.00
2022-08-20T09:17:22.422Z,19648.00
2022-08-20T09:18:22.403Z,19904.00
2022-08-20T09:19:22.396Z,20448.00
2022-08-20T09:20:23.031Z,21376.00
2022-08-20T09:21:22.376Z,23104.00
2022-08-20T09:22:22.383Z,34336.00
2022-08-20T09:23:22.355Z,63872.00
2022-08-20T09:24:22.344Z,27584.00
2022-08-20T09:25:22.334Z,28992.00
2022-08-20T09:26:22.315Z,32960.00
2022-08-20T09:27:23.344Z,29344.00
2022-08-20T09:28:22.295Z,20608.00
2022-08-20T09:29:22.286Z,19776.00
2022-08-20T09:30:22.275Z,19648.00
2022-08-20T09:31:22.266Z,19584.00
2022-08-20T09:32:22.247Z,19808.00
2022-08-20T09:33:22.264Z,18560.00
2022-08-20T09:34:22.227Z,16684.00
2022-08-20T09:35:22.219Z,15068.00
2022-08-20T09:36:31.627Z,14100.00
2022-08-20T09:37:23.198Z,13332.00
2022-08-20T09:38:22.206Z,12920.00
2022-08-20T09:39:22.180Z,12592.00
2022-08-20T09:40:22.187Z,13068.00
2022-08-20T09:41:22.162Z,25120.00
2022-08-20T09:42:22.140Z,22976.00
2022-08-20T09:43:22.129Z,19520.00
2022-08-20T09:44:22.132Z,18688.00
2022-08-20T09:45:22.111Z,17504.00
2022-08-20T09:46:27.150Z,16864.00
2022-08-20T09:47:23.090Z,17568.00
2022-08-20T09:48:22.071Z,17696.00
2022-08-20T09:49:23.089Z,18400.00
2022-08-20T09:50:22.051Z,20992.00
2022-08-20T09:51:22.090Z,24672.00
2022-08-20T09:52:22.030Z,26752.00
2022-08-20T09:53:22.022Z,29280.00
2022-08-20T09:54:22.011Z,32096.00
2022-08-20T09:55:22.020Z,32800.00
2022-08-20T09:56:21.983Z,32800.00
2022-08-20T09:57:21.973Z,31872.00
2022-08-20T09:58:21.962Z,29600.00
2022-08-20T09:59:21.953Z,27200.00
2022-08-20T10:00:21.944Z,24352.00
2022-08-20T10:01:22.028Z,21088.00
2022-08-20T10:02:21.915Z,19904.00
2022-08-20T10:03:21.914Z,18656.00
2022-08-20T10:04:21.895Z,18176.00
2022-08-20T10:05:21.884Z,18368.00
2022-08-20T10:06:21.895Z,18944.00
2022-08-20T10:07:21.856Z,18688.00
2022-08-20T10:08:21.856Z,18240.00
2022-08-20T10:09:21.845Z,19424.00
2022-08-20T10:10:21.834Z,21216.00
2022-08-20T10:11:21.818Z,21920.00
2022-08-20T10:12:21.826Z,21696.00
2022-08-20T10:13:21.786Z,21728.00
2022-08-20T10:14:21.790Z,22400.00
2022-08-20T10:15:21.781Z,22624.00
2022-08-20T10:16:21.765Z,21984.00
2022-08-20T10:17:21.747Z,20768.00
2022-08-20T10:18:21.790Z,18560.00
2022-08-20T10:19:21.725Z,17504.00
2022-08-20T10:20:21.718Z,16816.00
2022-08-20T10:21:21.699Z,16516.00
2022-08-20T10:22:21.701Z,16344.00
2022-08-20T10:23:21.679Z,16088.00
2022-08-20T10:24:21.693Z,15396.00
2022-08-20T10:25:21.659Z,14756.00
2022-08-20T10:26:21.650Z,14052.00
2022-08-20T10:27:21.639Z,13768.00
2022-08-20T10:28:21.628Z,13744.00
2022-08-20T10:29:28.740Z,13816.00
2022-08-20T10:30:21.606Z,13948.00
2022-08-20T10:31:21.597Z,14392.00
2022-08-20T10:32:21.586Z,14996.00
2022-08-20T10:33:21.567Z,15388.00
2022-08-20T10:34:21.557Z,15536.00
2022-08-20T10:35:21.567Z,15808.00
2022-08-20T10:36:21.536Z,16248.00
2022-08-20T10:37:21.517Z,16548.00
2022-08-20T10:38:21.516Z,16804.00
2022-08-20T10:39:21.498Z,17184.00
2022-08-20T10:40:21.548Z,17216.00
2022-08-20T10:41:21.498Z,17568.00
2022-08-20T10:42:21.468Z,17696.00
2022-08-20T10:43:21.450Z,17824.00
2022-08-20T10:44:21.450Z,17984.00
2022-08-20T10:45:21.429Z,19200.00
2022-08-20T10:46:21.420Z,20000.00
2022-08-20T10:47:21.420Z,21408.00
2022-08-20T10:48:21.745Z,22176.00
2022-08-20T10:49:21.381Z,21920.00
2022-08-20T10:50:21.378Z,19808.00
2022-08-20T10:51:21.360Z,18176.00
2022-08-20T10:52:22.370Z,16636.00
2022-08-20T10:53:21.344Z,15348.00
2022-08-20T10:54:21.332Z,14212.00
2022-08-20T10:55:21.311Z,13928.00
2022-08-20T10:56:21.310Z,14196.00
2022-08-20T10:57:21.293Z,14052.00
2022-08-20T10:58:23.130Z,13852.00
2022-08-20T10:59:21.277Z,13472.00
2022-08-20T11:00:21.263Z,13016.00
2022-08-20T11:01:32.853Z,12284.00
2022-08-20T11:02:22.300Z,11468.00
2022-08-20T11:03:21.244Z,11028.00
2022-08-20T11:04:21.223Z,11140.00
2022-08-20T11:05:21.211Z,11676.00
2022-08-20T11:06:21.203Z,11036.00
2022-08-20T11:07:21.183Z,11056.00
2022-08-20T11:08:33.672Z,10580.00
2022-08-20T11:09:22.175Z,10852.00
2022-08-20T11:10:21.153Z,10432.00
2022-08-20T11:11:21.136Z,10120.00
2022-08-20T11:12:21.137Z,10248.00
2022-08-20T11:13:21.114Z,10036.00
2022-08-20T11:14:21.125Z,10180.00
2022-08-20T11:15:21.089Z,10136.00
2022-08-20T11:16:21.077Z,10384.00
2022-08-20T11:17:21.066Z,10420.00
2022-08-20T11:18:21.056Z,10756.00
2022-08-20T11:19:21.090Z,9008.00
2022-08-20T11:20:21.037Z,9572.00
2022-08-20T11:21:21.019Z,9556.00
2022-08-20T11:22:21.019Z,9248.00
2022-08-20T11:23:20.998Z,8536.00
2022-08-20T11:24:20.989Z,8864.00
2022-08-20T11:25:20.997Z,8884.00
2022-08-20T11:26:20.971Z,8888.00
2022-08-20T11:27:20.954Z,8828.00
2022-08-20T11:28:31.786Z,8728.00
2022-08-20T11:29:21.930Z,8772.00
2022-08-20T11:30:20.927Z,8404.00
2022-08-20T11:31:20.932Z,8040.00
2022-08-20T11:32:20.908Z,7988.00
2022-08-20T11:33:20.882Z,7500.00
2022-08-20T11:34:20.880Z,7820.00
2022-08-20T11:35:40.978Z,7928.00
2022-08-20T11:36:21.880Z,8364.00
2022-08-20T11:37:20.838Z,7320.00
2022-08-20T11:38:20.831Z,6944.00
2022-08-20T11:39:20.820Z,8252.00
2022-08-20T11:40:20.904Z,8040.00
2022-08-20T11:41:20.792Z,8212.00
2022-08-20T11:42:20.802Z,8892.00
2022-08-20T11:43:20.773Z,7780.00
2022-08-20T11:44:21.668Z,7076.00
2022-08-20T11:45:20.750Z,7760.00
2022-08-20T11:46:23.349Z,7712.00
2022-08-20T11:47:20.754Z,6836.00
2022-08-20T11:48:20.720Z,6596.00
2022-08-20T11:49:20.705Z,7244.00
2022-08-20T11:50:20.693Z,8000.00
2022-08-20T11:51:20.682Z,8044.00
2022-08-20T11:52:20.674Z,7976.00
2022-08-20T11:53:21.525Z,9104.00
2022-08-20T11:54:20.645Z,9740.00
2022-08-20T11:55:20.636Z,9476.00
2022-08-20T11:56:21.625Z,9196.00
2022-08-20T11:57:20.614Z,9032.00
2022-08-20T11:58:20.625Z,7792.00
2022-08-20T11:59:20.585Z,7936.00
2022-08-20T12:00:20.575Z,8188.00
2022-08-20T12:01:21.567Z,7748.00
2022-08-20T12:02:20.594Z,7628.00
2022-08-20T12:03:20.581Z,6268.00
2022-08-20T12:04:20.557Z,6620.00
2022-08-20T12:05:20.517Z,5960.00
2022-08-20T12:06:20.517Z,5488.00
2022-08-20T12:07:20.499Z,5264.00
2022-08-20T12:08:25.437Z,5292.00
2022-08-20T12:09:24.360Z,5612.00
2022-08-20T12:10:20.468Z,5780.00
2022-08-20T12:11:20.457Z,6036.00
2022-08-20T12:12:20.445Z,7116.00
2022-08-20T12:13:20.428Z,7320.00
2022-08-20T12:14:20.420Z,7700.00
2022-08-20T12:15:20.420Z,9168.00
2022-08-20T12:16:20.399Z,9168.00
2022-08-20T12:17:20.380Z,8436.00
2022-08-20T12:18:20.370Z,8948.00
2022-08-20T12:19:20.362Z,9060.00
2022-08-20T12:20:20.399Z,10392.00
2022-08-20T12:21:20.340Z,9044.00
2022-08-20T12:22:24.750Z,10316.00